Time;durP1;ratioP1;P1;durP2;ratioP2;P2;SDS_P1;SDS_P2;PMS_P1;PMS_P2;Temp;Humidity;BMP_temperature;BMP_pressure;BME280_temperature;BME280_humidity;BME280_pressure;Samples;Min_cycle;Max_cycle;Signal;HPM_P1;HPM_P2
2023/09/23 00:00:15;;;;;;;14.48;6.40;;;12.70;99.90;;;;;;6188455;23;20071;-82
2023/09/23 00:02:44;;;;;;;11.98;6.78;;;12.20;99.90;;;;;;6187790;23;20051;-83
2023/09/23 00:05:11;;;;;;;12.63;7.07;;;12.10;99.90;;;;;;6213516;23;20099;-83
2023/09/23 00:07:41;;;;;;;13.65;7.00;;;12.10;99.90;;;;;;6187662;23;20016;-83
2023/09/23 00:10:09;;;;;;;13.40;7.63;;;12.10;99.90;;;;;;6187106;23;20090;-82
2023/09/23 00:12:38;;;;;;;15.40;7.72;;;12.10;99.90;;;;;;6188368;23;20019;-83
2023/09/23 00:15:05;;;;;;;14.88;7.75;;;12.20;99.90;;;;;;6190339;23;20431;-82
2023/09/23 00:17:32;;;;;;;14.70;7.65;;;12.10;99.90;;;;;;6188692;23;20048;-82
2023/09/23 00:19:58;;;;;;;15.32;8.57;;;12.70;99.90;;;;;;6190127;23;20024;-82
2023/09/23 00:22:24;;;;;;;14.68;8.05;;;12.10;99.90;;;;;;6190086;23;20059;-82
2023/09/23 00:24:50;;;;;;;16.15;8.25;;;13.00;99.90;;;;;;6215495;23;20024;-82
2023/09/23 00:27:17;;;;;;;13.65;7.95;;;12.10;99.90;;;;;;6190244;23;20023;-82
2023/09/23 00:29:44;;;;;;;14.80;7.82;;;12.10;99.90;;;;;;6214847;23;20013;-82
2023/09/23 00:32:12;;;;;;;15.88;8.10;;;12.40;99.90;;;;;;6189254;23;20059;-82
2023/09/23 00:34:38;;;;;;;13.82;7.88;;;12.10;99.90;;;;;;6189716;23;20009;-82
2023/09/23 00:37:04;;;;;;;14.65;8.10;;;12.10;99.90;;;;;;6190348;23;20091;-82
2023/09/23 00:39:30;;;;;;;14.82;8.07;;;12.40;99.90;;;;;;6189174;23;20434;-82
2023/09/23 00:41:55;;;;;;;14.23;8.05;;;12.10;99.90;;;;;;6189718;23;20019;-82
2023/09/23 00:44:21;;;;;;;14.23;7.82;;;12.30;99.90;;;;;;6189840;23;20019;-82
2023/09/23 00:46:46;;;;;;;15.85;8.00;;;12.80;99.90;;;;;;6188683;23;20368;-82
2023/09/23 00:49:13;;;;;;;14.18;7.95;;;13.00;99.90;;;;;;6189876;23;20151;-82
2023/09/23 00:51:39;;;;;;;16.88;8.82;;;12.10;99.90;;;;;;6189453;23;20047;-83
2023/09/23 00:54:06;;;;;;;16.23;7.80;;;12.50;99.90;;;;;;6189133;23;20016;-83
2023/09/23 00:56:36;;;;;;;16.83;7.93;;;12.10;99.90;;;;;;6189830;23;20385;-81
2023/09/23 00:59:05;;;;;;;15.88;8.35;;;12.10;99.90;;;;;;6189926;23;20012;-83
2023/09/23 01:01:31;;;;;;;16.77;8.82;;;12.10;99.90;;;;;;6188994;23;20103;-83
2023/09/23 01:03:57;;;;;;;15.23;8.65;;;12.10;99.90;;;;;;6189196;23;20036;-82
2023/09/23 01:06:26;;;;;;;16.38;8.88;;;12.00;99.90;;;;;;6189274;23;20023;-82
2023/09/23 01:08:54;;;;;;;16.70;8.90;;;12.10;99.90;;;;;;6189366;23;20013;-82
2023/09/23 01:11:20;;;;;;;18.02;10.02;;;12.10;99.90;;;;;;6189782;23;20017;-82
2023/09/23 01:13:50;;;;;;;16.88;9.60;;;12.10;99.90;;;;;;6163510;23;20020;-82
2023/09/23 01:16:17;;;;;;;18.83;9.70;;;12.60;99.90;;;;;;6189902;23;20433;-82
2023/09/23 01:18:46;;;;;;;20.13;10.48;;;12.00;99.90;;;;;;6189326;23;20448;-82
2023/09/23 01:21:12;;;;;;;18.63;10.30;;;12.30;99.90;;;;;;6188899;23;20079;-82
2023/09/23 01:23:39;;;;;;;17.88;10.05;;;12.70;99.90;;;;;;6188977;23;20055;-82
2023/09/23 01:26:04;;;;;;;15.82;9.18;;;12.30;99.90;;;;;;6189532;23;20015;-82
2023/09/23 01:28:32;;;;;;;17.55;9.05;;;12.00;99.90;;;;;;6188579;23;20099;-82
2023/09/23 01:31:02;;;;;;;16.48;9.15;;;12.00;99.90;;;;;;6189267;23;20520;-82
2023/09/23 01:33:28;;;;;;;15.35;8.05;;;11.90;99.90;;;;;;6189491;23;20094;-82
2023/09/23 01:35:57;;;;;;;14.70;7.43;;;12.30;99.90;;;;;;6188490;23;20499;-82
2023/09/23 01:38:24;;;;;;;14.05;6.80;;;11.90;99.90;;;;;;6189483;23;20314;-82
2023/09/23 01:40:51;;;;;;;12.70;6.60;;;11.90;99.90;;;;;;6189231;23;20017;-82
2023/09/23 01:43:16;;;;;;;12.05;5.97;;;11.90;99.90;;;;;;6189003;23;20016;-82
2023/09/23 01:45:42;;;;;;;11.27;5.60;;;11.80;99.90;;;;;;6189221;23;20078;-82
2023/09/23 01:48:08;;;;;;;11.35;4.80;;;11.80;99.90;;;;;;6189443;23;20133;-82
2023/09/23 01:50:33;;;;;;;10.35;5.00;;;12.00;99.90;;;;;;6188271;23;20346;-82
2023/09/23 01:53:00;;;;;;;10.18;4.38;;;12.70;99.90;;;;;;6189421;23;20028;-82
2023/09/23 01:55:29;;;;;;;9.75;4.03;;;11.70;99.90;;;;;;6188845;23;20100;-82
2023/09/23 01:57:55;;;;;;;9.50;4.30;;;11.80;99.90;;;;;;6189152;23;20047;-82
2023/09/23 02:00:28;;;;;;;9.18;4.28;;;11.70;99.90;;;;;;6189124;23;20016;-82
2023/09/23 02:02:55;;;;;;;9.63;4.20;;;11.70;99.90;;;;;;6187899;23;20035;-81
2023/09/23 02:05:24;;;;;;;10.35;4.00;;;12.60;99.90;;;;;;6188550;23;20496;-82
2023/09/23 02:07:50;;;;;;;11.23;5.10;;;12.10;99.90;;;;;;6188714;23;20099;-82
2023/09/23 02:10:24;;;;;;;10.07;4.80;;;12.80;99.90;;;;;;6188482;23;20058;-82
2023/09/23 02:12:50;;;;;;;10.27;5.10;;;12.20;99.90;;;;;;6188743;23;20115;-82
2023/09/23 02:15:16;;;;;;;10.73;5.20;;;11.60;99.90;;;;;;6216245;23;20362;-81
2023/09/23 02:17:48;;;;;;;11.35;5.43;;;11.50;99.90;;;;;;6188087;23;20016;-82
2023/09/23 02:20:18;;;;;;;12.20;5.57;;;11.50;99.90;;;;;;6189085;23;20396;-82
2023/09/23 02:22:54;;;;;;;12.18;6.20;;;11.50;99.90;;;;;;6188759;23;20251;-82
2023/09/23 02:25:20;;;;;;;11.73;5.78;;;11.60;99.90;;;;;;6188458;23;20020;-82
2023/09/23 02:27:46;;;;;;;11.85;5.82;;;11.60;99.90;;;;;;6187969;23;20346;-82
2023/09/23 02:30:13;;;;;;;11.75;6.05;;;11.60;99.90;;;;;;6188481;23;20016;-82
2023/09/23 02:32:40;;;;;;;11.80;5.85;;;11.60;99.90;;;;;;6187958;23;20142;-82
2023/09/23 02:35:11;;;;;;;11.82;6.13;;;11.60;99.90;;;;;;6188832;23;20012;-82
2023/09/23 02:37:45;;;;;;;12.63;6.32;;;11.50;99.90;;;;;;6188579;23;20433;-82
2023/09/23 02:40:12;;;;;;;13.90;6.22;;;11.50;99.90;;;;;;6189758;23;20015;-82
2023/09/23 02:42:39;;;;;;;12.95;5.88;;;11.70;99.90;;;;;;6188594;23;20024;-82
2023/09/23 02:45:06;;;;;;;11.65;5.95;;;11.60;99.90;;;;;;6214358;23;20012;-82
2023/09/23 02:47:32;;;;;;;13.20;5.70;;;11.60;99.90;;;;;;6188733;23;20091;-82
2023/09/23 02:49:58;;;;;;;10.73;5.50;;;11.60;99.90;;;;;;6187908;23;20047;-82
2023/09/23 02:52:23;;;;;;;11.93;5.45;;;11.50;99.90;;;;;;6188241;23;20024;-82
2023/09/23 02:54:51;;;;;;;12.30;5.90;;;11.50;99.90;;;;;;6188361;23;20078;-81
2023/09/23 02:57:17;;;;;;;12.85;6.38;;;11.50;99.90;;;;;;6188563;23;20345;-81
2023/09/23 02:59:44;;;;;;;13.13;6.32;;;11.40;99.90;;;;;;6187634;23;20027;-81
2023/09/23 03:02:19;;;;;;;15.15;6.47;;;11.40;99.90;;;;;;6188708;23;20019;-82
2023/09/23 03:04:45;;;;;;;12.80;5.70;;;11.90;99.90;;;;;;6187707;23;20020;-82
2023/09/23 03:07:12;;;;;;;12.80;5.80;;;12.40;99.90;;;;;;6187777;23;20118;-82
2023/09/23 03:09:43;;;;;;;11.25;5.65;;;12.20;99.90;;;;;;6188828;23;20021;-82
2023/09/23 03:12:09;;;;;;;12.48;5.30;;;11.20;99.90;;;;;;6188667;23;20021;-82
2023/09/23 03:14:42;;;;;;;12.30;5.75;;;11.10;99.90;;;;;;6187415;23;20019;-82
2023/09/23 03:17:09;;;;;;;11.85;5.72;;;11.10;99.90;;;;;;6215775;23;20070;-82
2023/09/23 03:19:35;;;;;;;12.18;6.03;;;11.20;99.90;;;;;;6188268;23;20095;-82
2023/09/23 03:22:02;;;;;;;13.05;6.22;;;11.00;99.90;;;;;;6187899;23;20017;-82
2023/09/23 03:24:29;;;;;;;12.25;6.20;;;10.90;99.90;;;;;;6188427;23;20094;-82
2023/09/23 03:27:00;;;;;;;13.05;6.40;;;10.90;99.90;;;;;;6187228;23;20452;-82
2023/09/23 03:29:30;;;;;;;15.80;7.38;;;11.70;99.90;;;;;;6188406;23;20028;-82
2023/09/23 03:31:57;;;;;;;15.85;8.10;;;11.00;99.90;;;;;;6188252;23;20088;-82
2023/09/23 03:34:23;;;;;;;16.50;8.30;;;10.80;99.90;;;;;;6187536;23;20437;-82
2023/09/23 03:36:51;;;;;;;14.57;8.10;;;10.80;99.90;;;;;;6188291;23;20345;-82
2023/09/23 03:39:17;;;;;;;16.17;8.50;;;11.40;99.90;;;;;;6188330;23;20441;-82
2023/09/23 03:41:49;;;;;;;17.90;9.15;;;10.80;99.90;;;;;;6187200;23;20016;-82
2023/09/23 03:44:15;;;;;;;16.45;8.63;;;10.70;99.90;;;;;;6188473;23;20429;-82
2023/09/23 03:46:43;;;;;;;18.33;9.48;;;10.70;99.90;;;;;;6187687;23;20074;-82
2023/09/23 03:49:09;;;;;;;20.25;10.57;;;11.20;99.90;;;;;;6187302;23;20028;-82
2023/09/23 03:51:36;;;;;;;19.15;10.00;;;10.70;99.90;;;;;;6187992;23;20064;-82
2023/09/23 03:54:02;;;;;;;18.48;10.30;;;10.70;99.90;;;;;;6215065;23;20024;-82
2023/09/23 03:56:27;;;;;;;19.92;10.57;;;10.70;99.90;;;;;;6187395;23;20005;-82
2023/09/23 03:58:57;;;;;;;20.27;10.70;;;10.60;99.90;;;;;;6188310;23;20277;-83
2023/09/23 04:01:24;;;;;;;19.90;10.80;;;10.60;99.90;;;;;;6188173;23;20016;-82
2023/09/23 04:03:53;;;;;;;18.70;10.25;;;10.60;99.90;;;;;;6186384;23;20326;-82
2023/09/23 04:06:19;;;;;;;19.73;10.65;;;10.50;99.90;;;;;;6187197;23;20445;-81
2023/09/23 04:08:46;;;;;;;20.00;10.82;;;10.50;99.90;;;;;;6188154;23;20027;-82
2023/09/23 04:11:15;;;;;;;19.10;10.77;;;10.50;99.90;;;;;;6187179;23;20009;-82
2023/09/23 04:13:47;;;;;;;20.45;10.88;;;10.40;99.90;;;;;;6187911;23;20019;-82
2023/09/23 04:16:13;;;;;;;20.55;11.30;;;10.40;99.90;;;;;;6187379;23;20009;-82
2023/09/23 04:18:40;;;;;;;22.27;11.40;;;10.40;99.90;;;;;;6187461;23;20062;-82
2023/09/23 04:21:06;;;;;;;22.85;11.45;;;11.30;99.90;;;;;;6188392;23;20020;-82
2023/09/23 04:23:32;;;;;;;22.05;11.57;;;11.30;99.90;;;;;;6187331;23;20095;-82
2023/09/23 04:25:57;;;;;;;21.23;11.32;;;10.30;99.90;;;;;;6187426;23;20430;-82
2023/09/23 04:28:23;;;;;;;21.20;11.32;;;11.60;99.90;;;;;;6188186;23;20461;-82
2023/09/23 04:30:53;;;;;;;20.27;11.15;;;10.70;99.90;;;;;;6186888;23;20020;-82
2023/09/23 04:33:20;;;;;;;22.02;11.15;;;11.20;99.90;;;;;;6188139;23;20079;-82
2023/09/23 04:35:46;;;;;;;21.40;11.48;;;10.30;99.90;;;;;;6187826;23;20552;-82
2023/09/23 04:38:11;;;;;;;23.25;12.45;;;10.30;99.90;;;;;;6187369;23;20020;-82
2023/09/23 04:40:37;;;;;;;23.50;11.77;;;10.50;99.90;;;;;;6187959;23;20012;-82
2023/09/23 04:43:04;;;;;;;25.15;11.77;;;10.30;99.90;;;;;;6188346;23;20021;-82
2023/09/23 04:45:30;;;;;;;28.25;12.23;;;10.30;99.90;;;;;;6187324;23;20071;-82
2023/09/23 04:47:55;;;;;;;25.67;12.10;;;10.30;99.90;;;;;;6188126;23;20017;-82
2023/09/23 04:50:24;;;;;;;23.58;11.43;;;11.40;99.90;;;;;;6214382;23;20017;-81
2023/09/23 04:52:50;;;;;;;22.17;10.63;;;10.40;99.90;;;;;;6186711;23;20039;-82
2023/09/23 04:55:16;;;;;;;23.40;11.60;;;10.70;99.90;;;;;;6214646;23;20476;-83
2023/09/23 04:57:42;;;;;;;24.90;11.60;;;10.30;99.90;;;;;;6187682;23;20013;-80
2023/09/23 05:00:14;;;;;;;24.48;12.15;;;11.10;99.90;;;;;;6188157;23;20024;-81
2023/09/23 05:02:40;;;;;;;26.42;11.63;;;10.20;99.90;;;;;;6189633;23;20020;-82
2023/09/23 05:05:06;;;;;;;25.35;12.05;;;10.20;99.90;;;;;;6189497;23;20023;-82
2023/09/23 05:07:31;;;;;;;25.75;12.23;;;10.20;99.90;;;;;;6189120;23;20103;-81
2023/09/23 05:09:57;;;;;;;26.25;12.90;;;10.30;99.90;;;;;;6189566;23;20020;-81
2023/09/23 05:12:27;;;;;;;27.65;13.20;;;10.10;99.90;;;;;;6188901;23;20453;-81
2023/09/23 05:14:53;;;;;;;28.33;13.20;;;10.10;99.90;;;;;;6189646;23;20032;-82
2023/09/23 05:17:18;;;;;;;29.33;13.38;;;10.50;99.90;;;;;;6189806;23;20020;-81
2023/09/23 05:19:47;;;;;;;31.88;13.38;;;10.40;99.90;;;;;;6188431;23;20086;-82
2023/09/23 05:22:13;;;;;;;27.75;12.98;;;10.10;99.90;;;;;;6189836;23;20024;-82
2023/09/23 05:24:39;;;;;;;29.70;13.85;;;10.50;99.90;;;;;;6189604;23;20020;-81
2023/09/23 05:27:05;;;;;;;29.77;12.95;;;10.30;99.90;;;;;;6189544;23;20020;-81
2023/09/23 05:29:32;;;;;;;37.30;15.63;;;10.30;99.90;;;;;;6190287;23;20016;-81
2023/09/23 05:31:58;;;;;;;32.08;15.60;;;11.30;99.90;;;;;;6191711;23;20021;-81
2023/09/23 05:34:23;;;;;;;38.33;17.05;;;10.50;99.90;;;;;;6192245;23;20027;-81
2023/09/23 05:36:49;;;;;;;37.85;17.40;;;10.50;99.90;;;;;;6190717;23;20063;-81
2023/09/23 05:39:19;;;;;;;37.50;18.33;;;10.60;99.90;;;;;;6191224;23;20024;-82
2023/09/23 05:41:46;;;;;;;34.83;17.70;;;10.70;99.90;;;;;;6191916;23;20087;-81
2023/09/23 05:44:13;;;;;;;40.53;18.00;;;11.40;99.90;;;;;;6217939;23;20020;-81
2023/09/23 05:46:40;;;;;;;42.53;20.05;;;10.90;99.90;;;;;;6219876;23;20309;-81
2023/09/23 05:49:08;;;;;;;38.90;18.55;;;10.80;99.90;;;;;;6218869;23;20096;-82
2023/09/23 05:51:34;;;;;;;40.90;18.60;;;10.80;99.90;;;;;;6192007;23;20377;-81
2023/09/23 05:54:01;;;;;;;36.53;18.90;;;11.20;99.90;;;;;;6191000;23;20016;-81
2023/09/23 05:56:26;;;;;;;37.65;18.23;;;10.80;99.90;;;;;;6188923;23;20008;-81
2023/09/23 05:58:52;;;;;;;35.80;18.10;;;10.90;99.90;;;;;;6189364;23;20020;-82
2023/09/23 06:01:18;;;;;;;37.83;19.63;;;10.90;99.90;;;;;;6189931;23;20462;-83
2023/09/23 06:03:44;;;;;;;38.85;18.63;;;11.00;99.90;;;;;;6188559;23;20077;-82
2023/09/23 06:06:11;;;;;;;42.50;20.52;;;11.30;99.90;;;;;;6189859;23;20091;-82
2023/09/23 06:08:37;;;;;;;45.17;20.83;;;11.30;99.90;;;;;;6188331;23;20634;-81
2023/09/23 06:11:04;;;;;;;39.53;20.25;;;11.10;99.90;;;;;;6218182;23;20015;-81
2023/09/23 06:13:31;;;;;;;42.20;21.33;;;11.10;99.90;;;;;;6191587;23;20021;-82
2023/09/23 06:16:06;;;;;;;42.42;21.33;;;11.10;99.90;;;;;;6191346;23;20008;-82
2023/09/23 06:18:33;;;;;;;39.97;20.77;;;11.20;99.90;;;;;;6191693;23;20024;-81
2023/09/23 06:21:00;;;;;;;39.08;20.60;;;11.90;99.90;;;;;;6190735;23;20008;-81
2023/09/23 06:23:26;;;;;;;38.15;20.17;;;11.20;99.90;;;;;;6190473;23;20039;-81
2023/09/23 06:26:02;;;;;;;43.00;21.13;;;11.20;99.90;;;;;;6190776;23;20013;-81
2023/09/23 06:28:31;;;;;;;41.45;21.25;;;11.90;99.90;;;;;;6191706;23;20075;-81
2023/09/23 06:30:57;;;;;;;40.60;21.10;;;12.60;99.90;;;;;;6190776;23;20013;-83
2023/09/23 06:33:23;;;;;;;39.90;20.10;;;11.30;99.90;;;;;;6191511;23;20484;-81
2023/09/23 06:35:49;;;;;;;37.70;19.95;;;11.50;99.90;;;;;;6191897;23;20028;-84
2023/09/23 06:38:15;;;;;;;42.47;20.45;;;11.40;99.90;;;;;;6215864;23;20051;-82
2023/09/23 06:40:41;;;;;;;38.95;20.55;;;11.50;99.90;;;;;;6189689;23;20013;-82
2023/09/23 06:43:07;;;;;;;39.13;20.52;;;12.00;99.90;;;;;;6189457;23;20103;-81
2023/09/23 06:45:32;;;;;;;38.05;19.58;;;12.10;99.90;;;;;;6188468;23;20017;-83
2023/09/23 06:47:58;;;;;;;40.25;20.55;;;11.50;99.90;;;;;;6191109;23;20024;-80
2023/09/23 06:50:24;;;;;;;39.50;20.63;;;11.60;99.90;;;;;;6192809;23;20091;-81
2023/09/23 06:52:49;;;;;;;40.75;21.05;;;11.60;99.90;;;;;;6189389;23;20059;-80
2023/09/23 06:55:15;;;;;;;35.05;19.27;;;11.70;99.90;;;;;;6190817;23;20043;-81
2023/09/23 06:57:40;;;;;;;38.05;19.90;;;11.60;99.90;;;;;;6194226;23;20051;-81
2023/09/23 07:00:07;;;;;;;36.38;20.00;;;12.40;99.90;;;;;;6189386;23;20100;-81
2023/09/23 07:02:33;;;;;;;35.45;18.23;;;11.60;99.90;;;;;;6190709;23;20020;-81
2023/09/23 07:04:59;;;;;;;36.80;19.98;;;11.70;99.90;;;;;;6190181;23;20088;-81
2023/09/23 07:07:25;;;;;;;35.25;19.38;;;12.10;99.90;;;;;;6191211;23;20020;-79
2023/09/23 07:09:54;;;;;;;36.05;19.65;;;11.70;99.90;;;;;;6215885;23;20036;-80
2023/09/23 07:12:20;;;;;;;36.10;19.77;;;11.80;99.90;;;;;;6191276;23;20016;-79
2023/09/23 07:14:46;;;;;;;37.05;19.05;;;12.10;99.90;;;;;;6190099;23;20104;-79
2023/09/23 07:17:11;;;;;;;38.67;18.60;;;11.90;99.90;;;;;;6191041;23;20318;-81
2023/09/23 07:19:37;;;;;;;35.33;19.23;;;12.10;99.90;;;;;;6189261;23;20512;-81
2023/09/23 07:22:03;;;;;;;39.10;19.52;;;12.10;99.90;;;;;;6192092;23;20091;-82
2023/09/23 07:24:32;;;;;;;32.33;17.77;;;12.50;99.90;;;;;;6217533;23;20047;-82
2023/09/23 07:26:58;;;;;;;47.15;19.65;;;12.20;99.90;;;;;;6188767;23;20437;-82
2023/09/23 07:29:24;;;;;;;39.67;18.73;;;12.50;99.90;;;;;;6189516;23;20024;-82
2023/09/23 07:31:50;;;;;;;32.92;17.50;;;12.40;99.90;;;;;;6190239;23;20060;-82
2023/09/23 07:34:15;;;;;;;31.85;17.77;;;13.20;99.90;;;;;;6190391;23;20136;-82
2023/09/23 07:36:43;;;;;;;35.83;19.35;;;12.50;99.90;;;;;;6188338;23;20441;-82
2023/09/23 07:39:10;;;;;;;34.53;19.25;;;12.50;99.90;;;;;;6188434;23;20059;-80
2023/09/23 07:41:36;;;;;;;31.45;18.45;;;12.50;99.90;;;;;;6187203;23;20009;-80
2023/09/23 07:44:02;;;;;;;30.88;17.50;;;12.50;99.90;;;;;;6188335;23;20017;-80
2023/09/23 07:46:30;;;;;;;29.75;16.50;;;12.60;99.90;;;;;;6188269;23;20009;-80
2023/09/23 07:48:56;;;;;;;27.77;16.02;;;12.60;99.90;;;;;;6186920;23;20490;-81
2023/09/23 07:51:22;;;;;;;28.98;16.95;;;13.00;99.90;;;;;;6183199;23;20100;-80
2023/09/23 07:53:51;;;;;;;27.48;15.98;;;13.70;99.90;;;;;;6183292;23;20027;-81
2023/09/23 07:56:16;;;;;;;27.05;16.08;;;12.80;99.90;;;;;;6183067;23;20017;-80
2023/09/23 07:58:42;;;;;;;28.73;16.98;;;12.80;99.90;;;;;;6182980;23;20411;-80
2023/09/23 08:01:08;;;;;;;27.23;15.85;;;12.80;99.90;;;;;;6183479;23;20009;-80
2023/09/23 08:03:33;;;;;;;27.15;16.20;;;12.90;99.90;;;;;;6182416;23;20104;-81
2023/09/23 08:05:59;;;;;;;25.88;15.68;;;12.90;99.90;;;;;;6183249;23;20017;-80
2023/09/23 08:08:25;;;;;;;24.88;14.75;;;13.40;99.90;;;;;;6182329;23;20028;-80
2023/09/23 08:10:50;;;;;;;25.08;16.15;;;13.10;99.90;;;;;;6182929;23;20009;-81
2023/09/23 08:13:17;;;;;;;25.05;14.57;;;13.20;99.90;;;;;;6182924;23;20108;-80
2023/09/23 08:15:43;;;;;;;27.23;15.27;;;13.30;99.90;;;;;;6182209;23;20346;-80
2023/09/23 08:18:08;;;;;;;24.73;14.95;;;13.30;99.90;;;;;;6183290;23;20095;-80
2023/09/23 08:20:35;;;;;;;25.25;15.48;;;13.40;99.90;;;;;;6182719;23;20091;-80
2023/09/23 08:23:01;;;;;;;24.58;14.35;;;13.30;99.90;;;;;;6182364;23;20393;-80
2023/09/23 08:25:26;;;;;;;26.45;14.05;;;13.90;99.90;;;;;;6183572;23;20095;-80
2023/09/23 08:27:54;;;;;;;25.90;14.02;;;13.70;99.90;;;;;;6182706;23;20534;-81
2023/09/23 08:30:19;;;;;;;26.67;14.00;;;13.70;99.90;;;;;;6182225;23;20118;-80
2023/09/23 08:32:45;;;;;;;23.55;13.55;;;13.60;99.90;;;;;;6182514;23;20508;-80
2023/09/23 08:35:11;;;;;;;23.38;13.80;;;14.60;99.90;;;;;;6184913;23;20092;-80
2023/09/23 08:37:37;;;;;;;21.95;13.68;;;13.80;99.90;;;;;;6183919;23;20413;-80
2023/09/23 08:40:09;;;;;;;22.73;13.85;;;13.80;99.90;;;;;;6185187;23;20019;-80
2023/09/23 08:42:35;;;;;;;22.45;14.60;;;14.00;99.90;;;;;;6184805;23;20021;-80
2023/09/23 08:45:02;;;;;;;23.00;13.32;;;14.20;99.90;;;;;;6184057;23;20036;-80
2023/09/23 08:47:29;;;;;;;22.10;13.85;;;14.10;99.90;;;;;;6185411;23;20020;-80
2023/09/23 08:49:55;;;;;;;21.33;12.65;;;14.20;99.90;;;;;;6184855;23;20013;-80
2023/09/23 08:52:24;;;;;;;21.27;13.13;;;14.20;99.90;;;;;;6184541;23;20059;-80
2023/09/23 08:54:50;;;;;;;20.85;13.25;;;14.60;99.90;;;;;;6186199;23;20017;-80
2023/09/23 08:57:16;;;;;;;23.92;13.43;;;14.30;99.90;;;;;;6186456;23;20055;-81
2023/09/23 08:59:45;;;;;;;19.77;12.13;;;14.30;99.90;;;;;;6183815;23;20020;-80
2023/09/23 09:02:16;;;;;;;20.33;12.57;;;14.10;99.90;;;;;;6185004;23;20430;-81
2023/09/23 09:04:42;;;;;;;19.77;12.65;;;14.70;99.90;;;;;;6183683;23;20087;-80
2023/09/23 09:07:08;;;;;;;18.20;12.07;;;14.00;99.90;;;;;;6186128;23;20013;-80
2023/09/23 09:09:37;;;;;;;18.25;11.25;;;14.60;99.90;;;;;;6184455;23;20028;-80
2023/09/23 09:12:02;;;;;;;18.27;11.93;;;14.00;99.90;;;;;;6183912;23;20012;-80
2023/09/23 09:14:28;;;;;;;19.98;12.07;;;14.10;99.90;;;;;;6184624;23;20382;-80
2023/09/23 09:16:54;;;;;;;19.23;11.77;;;14.20;99.90;;;;;;6184699;23;20053;-80
2023/09/23 09:19:20;;;;;;;18.92;11.88;;;14.20;99.90;;;;;;6183795;23;20093;-80
2023/09/23 09:21:45;;;;;;;19.77;11.27;;;14.20;99.90;;;;;;6184146;23;20429;-80
2023/09/23 09:24:11;;;;;;;19.70;11.48;;;14.30;99.90;;;;;;6185242;23;20103;-80
2023/09/23 09:26:38;;;;;;;18.50;11.02;;;14.40;99.90;;;;;;6183459;23;20020;-80
2023/09/23 09:29:04;;;;;;;18.58;11.27;;;14.60;99.90;;;;;;6184849;23;20044;-80
2023/09/23 09:31:34;;;;;;;18.25;11.50;;;14.40;99.90;;;;;;6184786;23;20095;-80
2023/09/23 09:34:11;;;;;;;22.42;12.73;;;14.60;99.90;;;;;;6184107;23;20017;-80
2023/09/23 09:36:40;;;;;;;19.00;12.05;;;15.30;99.90;;;;;;6184750;23;20061;-81
2023/09/23 09:39:08;;;;;;;19.10;11.82;;;14.80;99.90;;;;;;6185345;23;20067;-80
2023/09/23 09:41:45;;;;;;;16.95;11.52;;;14.90;99.90;;;;;;6183864;23;20039;-80
2023/09/23 09:44:12;;;;;;;19.02;11.77;;;14.80;99.90;;;;;;6185658;23;20013;-80
2023/09/23 09:46:40;;;;;;;18.83;11.30;;;14.80;99.90;;;;;;6184412;23;20021;-80
2023/09/23 09:49:07;;;;;;;17.63;10.77;;;15.00;99.90;;;;;;6184406;23;20025;-81
2023/09/23 09:51:35;;;;;;;19.38;11.07;;;15.20;99.90;;;;;;6184260;23;20056;-80
2023/09/23 09:54:04;;;;;;;17.55;10.93;;;15.30;99.90;;;;;;6183348;23;20013;-81
2023/09/23 09:56:30;;;;;;;16.63;11.57;;;15.30;99.90;;;;;;6184327;23;20013;-80
2023/09/23 09:58:59;;;;;;;18.65;11.55;;;15.40;99.90;;;;;;6184127;23;20089;-80
2023/09/23 10:01:24;;;;;;;16.88;10.75;;;15.50;99.90;;;;;;6183470;23;20013;-81
2023/09/23 10:03:53;;;;;;;17.73;10.90;;;15.50;99.90;;;;;;6183161;23;20156;-80
2023/09/23 10:06:19;;;;;;;15.60;11.10;;;16.40;99.90;;;;;;6184062;23;20500;-81
2023/09/23 10:08:48;;;;;;;18.30;10.30;;;15.90;99.90;;;;;;6182883;23;20068;-80
2023/09/23 10:11:15;;;;;;;17.90;10.02;;;15.90;99.90;;;;;;6184242;23;20016;-80
2023/09/23 10:13:42;;;;;;;15.00;9.40;;;16.10;99.90;;;;;;6183929;23;20021;-81
2023/09/23 10:16:19;;;;;;;14.20;8.80;;;16.20;99.90;;;;;;6183443;23;20024;-81
2023/09/23 10:18:56;;;;;;;14.70;8.07;;;16.10;99.90;;;;;;6183981;23;20021;-80
2023/09/23 10:21:29;;;;;;;14.38;8.45;;;16.60;99.90;;;;;;6184339;23;20032;-80
2023/09/23 10:23:56;;;;;;;15.85;8.18;;;16.30;99.90;;;;;;6183065;23;20017;-80
2023/09/23 10:26:23;;;;;;;12.85;7.93;;;16.20;99.90;;;;;;6184361;23;20092;-81
2023/09/23 10:29:00;;;;;;;14.23;8.13;;;16.40;99.90;;;;;;6183132;23;20020;-81
2023/09/23 10:31:29;;;;;;;12.98;7.78;;;16.40;99.90;;;;;;6184144;23;20025;-80
2023/09/23 10:33:55;;;;;;;14.52;8.05;;;16.60;99.90;;;;;;6183678;23;20013;-80
2023/09/23 10:36:22;;;;;;;13.88;7.50;;;16.90;99.90;;;;;;6183010;23;20017;-80
2023/09/23 10:38:48;;;;;;;18.38;7.30;;;16.90;99.90;;;;;;6183719;23;20013;-80
2023/09/23 10:41:14;;;;;;;13.85;7.20;;;17.10;99.90;;;;;;6183998;23;20063;-80
2023/09/23 10:43:40;;;;;;;15.23;7.22;;;17.00;99.90;;;;;;6183132;23;20093;-81
2023/09/23 10:46:06;;;;;;;12.80;6.68;;;17.00;99.90;;;;;;6184069;23;20009;-80
2023/09/23 10:48:33;;;;;;;12.48;6.90;;;17.20;99.90;;;;;;6183966;23;20017;-80
2023/09/23 10:51:00;;;;;;;13.43;7.43;;;16.70;99.90;;;;;;6182503;23;20060;-80
2023/09/23 10:53:28;;;;;;;13.27;6.90;;;16.60;99.90;;;;;;6183968;23;20076;-80
2023/09/23 10:55:55;;;;;;;12.65;6.72;;;16.50;99.90;;;;;;6183625;23;20021;-80
2023/09/23 10:58:21;;;;;;;14.85;6.82;;;16.90;99.90;;;;;;6182317;23;20012;-80
2023/09/23 11:00:48;;;;;;;13.27;6.70;;;16.30;99.90;;;;;;6183372;23;20017;-80
2023/09/23 11:03:18;;;;;;;13.45;6.68;;;16.30;99.90;;;;;;6183722;23;20023;-80
2023/09/23 11:05:44;;;;;;;12.80;6.47;;;16.10;99.90;;;;;;6182487;23;20448;-80
2023/09/23 11:08:12;;;;;;;13.45;6.45;;;16.10;99.90;;;;;;6183703;23;20334;-80
2023/09/23 11:10:39;;;;;;;11.93;6.32;;;16.20;99.90;;;;;;6183251;23;20044;-80
2023/09/23 11:13:06;;;;;;;10.85;5.90;;;16.20;99.90;;;;;;6182939;23;20101;-80
2023/09/23 11:15:32;;;;;;;12.15;6.20;;;16.20;99.90;;;;;;6183752;23;20041;-80
2023/09/23 11:17:58;;;;;;;13.27;5.72;;;16.20;99.90;;;;;;6183364;23;20013;-80
2023/09/23 11:20:30;;;;;;;12.45;5.50;;;16.00;99.90;;;;;;6182619;23;20401;-80
2023/09/23 11:23:05;;;;;;;11.02;5.85;;;15.90;99.90;;;;;;6183351;23;20107;-80
2023/09/23 11:25:46;;;;;;;13.82;6.25;;;15.90;99.90;;;;;;6182878;23;20071;-81
2023/09/23 11:28:17;;;;;;;9.73;5.60;;;15.80;99.90;;;;;;6183640;23;20076;-80
2023/09/23 11:30:42;;;;;;;13.75;6.00;;;16.10;99.90;;;;;;6183380;23;20036;-80
2023/09/23 11:33:11;;;;;;;10.55;5.43;;;16.60;99.90;;;;;;6182643;23;20446;-80
2023/09/23 11:35:37;;;;;;;10.60;5.32;;;16.90;99.90;;;;;;6183558;23;20013;-81
2023/09/23 11:38:03;;;;;;;11.95;5.45;;;17.70;99.90;;;;;;6183518;23;20087;-81
2023/09/23 11:40:30;;;;;;;11.98;5.38;;;17.20;99.90;;;;;;6182420;23;20048;-81
2023/09/23 11:42:56;;;;;;;10.88;4.57;;;17.40;99.90;;;;;;6183130;23;20096;-80
2023/09/23 11:45:23;;;;;;;9.82;4.13;;;17.80;99.90;;;;;;6183563;23;20098;-80
2023/09/23 11:47:49;;;;;;;9.25;4.50;;;17.50;99.90;;;;;;6182143;23;20096;-81
2023/09/23 11:50:15;;;;;;;8.93;3.83;;;17.60;99.90;;;;;;6182937;23;20052;-81
2023/09/23 11:52:41;;;;;;;10.55;4.32;;;17.60;99.90;;;;;;6183475;23;20103;-80
2023/09/23 11:55:10;;;;;;;10.18;4.40;;;17.30;99.90;;;;;;6184185;23;20044;-80
2023/09/23 11:57:36;;;;;;;8.93;4.40;;;17.10;99.90;;;;;;6182982;23;20096;-81
2023/09/23 12:00:03;;;;;;;9.55;4.95;;;16.80;99.90;;;;;;6183464;23;20009;-81
2023/09/23 12:02:30;;;;;;;9.20;4.80;;;16.50;99.90;;;;;;6182609;23;20069;-80
2023/09/23 12:04:56;;;;;;;9.93;4.95;;;16.30;99.90;;;;;;6182967;23;20017;-81
2023/09/23 12:07:23;;;;;;;12.13;5.13;;;16.50;99.90;;;;;;6182428;23;20017;-80
2023/09/23 12:09:49;;;;;;;9.93;5.88;;;16.00;99.90;;;;;;6184581;23;20104;-80
2023/09/23 12:12:15;;;;;;;12.13;6.07;;;16.10;99.90;;;;;;6185607;23;20374;-81
2023/09/23 12:14:42;;;;;;;9.85;5.47;;;16.50;99.90;;;;;;6184264;23;20013;-81
2023/09/23 12:17:14;;;;;;;11.95;4.97;;;16.60;99.90;;;;;;6185393;23;20063;-81
2023/09/23 12:19:46;;;;;;;10.10;4.70;;;16.80;99.90;;;;;;6185083;23;20045;-81
2023/09/23 12:22:12;;;;;;;9.85;4.55;;;17.10;99.90;;;;;;6184501;23;20120;-81
2023/09/23 12:24:39;;;;;;;9.57;4.28;;;17.20;99.90;;;;;;6185024;23;20323;-81
2023/09/23 12:27:05;;;;;;;9.43;4.35;;;17.50;99.90;;;;;;6185232;23;20021;-80
2023/09/23 12:29:30;;;;;;;9.38;4.00;;;17.90;99.90;;;;;;6184244;23;20024;-80
2023/09/23 12:31:56;;;;;;;8.85;3.90;;;17.70;99.90;;;;;;6184934;23;20100;-81